createdAt,value
2022-12-27T00:00:08.502Z,95.74
2022-12-27T00:02:41.533Z,96.02
2022-12-27T00:05:10.135Z,96.27
2022-12-27T00:07:37.464Z,96.37
2022-12-27T00:10:06.692Z,96.15
2022-12-27T00:12:33.961Z,96.06
2022-12-27T00:15:01.148Z,95.99
2022-12-27T00:17:28.320Z,95.67
2022-12-27T00:19:55.225Z,96.01
2022-12-27T00:22:22.385Z,95.63
2022-12-27T00:24:49.314Z,95.47
2022-12-27T00:27:16.311Z,95.92
2022-12-27T00:29:43.222Z,95.62
2022-12-27T00:32:10.146Z,95.65
2022-12-27T00:34:37.049Z,95.98
2022-12-27T00:37:04.018Z,95.72
2022-12-27T00:39:30.947Z,95.79
2022-12-27T00:41:58.118Z,95.84
2022-12-27T00:44:25.061Z,95.83
2022-12-27T00:46:51.993Z,95.60
2022-12-27T00:49:18.901Z,95.87
2022-12-27T00:51:45.827Z,95.73
2022-12-27T00:54:12.748Z,95.51
2022-12-27T00:56:39.666Z,95.72
2022-12-27T00:59:06.607Z,95.65
2022-12-27T01:01:35.980Z,95.56
2022-12-27T01:04:03.934Z,95.71
2022-12-27T01:06:33.494Z,95.44
2022-12-27T01:09:02.107Z,95.49
2022-12-27T01:11:29.849Z,95.27
2022-12-27T01:14:02.746Z,95.57
2022-12-27T01:16:31.778Z,95.29
2022-12-27T01:18:59.744Z,95.29
2022-12-27T01:21:27.803Z,95.42
2022-12-27T01:23:55.251Z,95.49
2022-12-27T01:26:24.058Z,95.28
2022-12-27T01:28:52.540Z,95.52
2022-12-27T01:31:24.593Z,95.41
2022-12-27T01:33:59.053Z,95.24
2022-12-27T01:36:28.495Z,95.17
2022-12-27T01:38:58.870Z,95.33
2022-12-27T01:41:52.978Z,95.29
2022-12-27T01:44:38.259Z,95.09
2022-12-27T01:47:51.341Z,94.68
2022-12-27T01:50:44.404Z,94.77
2022-12-27T01:53:41.568Z,94.96
2022-12-27T01:56:33.526Z,94.72
2022-12-27T01:59:05.386Z,95.12
2022-12-27T02:01:42.692Z,95.16
2022-12-27T02:04:15.503Z,94.94
2022-12-27T02:06:42.915Z,95.36
2022-12-27T02:09:39.513Z,94.97
2022-12-27T02:12:09.100Z,95.15
2022-12-27T02:14:47.019Z,94.95
2022-12-27T02:17:27.071Z,95.14
2022-12-27T02:20:16.080Z,95.09
2022-12-27T02:23:22.408Z,95.02
2022-12-27T02:26:14.729Z,95.01
2022-12-27T02:29:07.578Z,94.92
2022-12-27T02:31:49.229Z,95.18
2022-12-27T02:34:27.172Z,95.20
2022-12-27T02:37:01.438Z,95.40
2022-12-27T02:39:35.790Z,95.33
2022-12-27T02:42:23.247Z,95.46
2022-12-27T02:45:09.029Z,95.15
2022-12-27T02:47:54.887Z,95.32
2022-12-27T02:50:40.803Z,95.48
2022-12-27T02:53:39.905Z,95.23
2022-12-27T02:56:45.387Z,95.48
2022-12-27T02:59:36.611Z,95.31
2022-12-27T03:02:40.793Z,95.08
2022-12-27T03:05:13.396Z,95.38
2022-12-27T03:08:11.341Z,95.54
2022-12-27T03:11:17.751Z,95.00
2022-12-27T03:14:30.946Z,95.01
2022-12-27T03:17:22.796Z,95.20
2022-12-27T03:20:16.083Z,95.29
2022-12-27T03:23:03.977Z,95.56
2022-12-27T03:25:34.682Z,95.34
2022-12-27T03:28:35.541Z,95.49
2022-12-27T03:31:43.340Z,95.21
2022-12-27T03:34:31.848Z,95.73
2022-12-27T03:37:36.427Z,95.49
2022-12-27T03:40:34.544Z,95.26
2022-12-27T03:43:15.901Z,95.33
2022-12-27T03:46:27.377Z,95.23
2022-12-27T03:49:02.709Z,95.11
2022-12-27T03:51:37.231Z,95.78
2022-12-27T03:54:16.304Z,95.79
2022-12-27T03:56:43.205Z,96.04
2022-12-27T03:59:12.183Z,96.19
2022-12-27T04:01:39.460Z,96.05
2022-12-27T04:04:06.429Z,95.99
2022-12-27T04:06:33.355Z,96.49
2022-12-27T04:09:18.480Z,96.09
2022-12-27T04:12:03.580Z,96.32
2022-12-27T04:14:49.987Z,95.96
2022-12-27T04:17:35.234Z,96.13
2022-12-27T04:20:20.967Z,96.22
2022-12-27T04:23:06.191Z,96.39
2022-12-27T04:25:51.462Z,96.33
2022-12-27T04:28:36.747Z,96.63
2022-12-27T04:31:22.138Z,96.63
2022-12-27T04:34:08.515Z,96.57
2022-12-27T04:36:36.016Z,96.62
2022-12-27T04:39:03.741Z,96.99
2022-12-27T04:41:49.456Z,96.71
2022-12-27T04:44:36.110Z,96.87
2022-12-27T04:47:21.758Z,97.20
2022-12-27T04:50:07.583Z,97.00
2022-12-27T04:52:53.595Z,96.85
2022-12-27T04:55:23.509Z,97.08
2022-12-27T04:57:52.420Z,96.98
2022-12-27T05:00:41.437Z,96.90
2022-12-27T05:03:13.282Z,96.54
2022-12-27T05:05:42.480Z,96.96
2022-12-27T05:08:29.424Z,96.86
2022-12-27T05:11:15.229Z,96.88
2022-12-27T05:14:00.695Z,97.07
2022-12-27T05:16:35.377Z,96.94
2022-12-27T05:19:02.487Z,96.97
2022-12-27T05:21:29.393Z,97.14
2022-12-27T05:24:14.689Z,97.20
2022-12-27T05:26:41.638Z,97.25
2022-12-27T05:29:08.722Z,97.21
2022-12-27T05:31:35.916Z,97.47
2022-12-27T05:34:02.961Z,97.25
2022-12-27T05:36:29.913Z,97.87
2022-12-27T05:38:57.914Z,97.39
2022-12-27T05:41:26.211Z,97.55
2022-12-27T05:43:53.128Z,97.36
2022-12-27T05:46:22.084Z,97.75
2022-12-27T05:48:49.132Z,97.54
2022-12-27T05:51:21.054Z,97.38
2022-12-27T05:53:48.761Z,97.47
2022-12-27T05:56:20.283Z,97.22
2022-12-27T05:58:48.075Z,97.04
2022-12-27T06:01:17.748Z,97.16
2022-12-27T06:03:45.590Z,97.06
2022-12-27T06:06:13.425Z,97.15
2022-12-27T06:08:41.311Z,96.92
2022-12-27T06:11:12.819Z,97.23
2022-12-27T06:13:42.499Z,97.29
2022-12-27T06:16:12.479Z,97.18
2022-12-27T06:18:41.681Z,97.13
2022-12-27T06:21:18.772Z,97.32
2022-12-27T06:23:46.760Z,97.40
2022-12-27T06:26:18.932Z,97.26
2022-12-27T06:28:46.488Z,97.63
2022-12-27T06:31:13.454Z,97.68
2022-12-27T06:33:40.440Z,97.33
2022-12-27T06:36:10.900Z,97.20
2022-12-27T06:38:38.384Z,97.49
2022-12-27T06:41:11.492Z,97.37
2022-12-27T06:43:39.046Z,97.44
2022-12-27T06:46:16.860Z,97.44
2022-12-27T06:48:48.416Z,97.33
2022-12-27T06:51:19.316Z,97.50
2022-12-27T06:53:47.682Z,97.34
2022-12-27T06:56:18.134Z,97.55
2022-12-27T06:58:47.297Z,97.39
2022-12-27T07:01:16.852Z,97.49
2022-12-27T07:03:48.020Z,97.19
2022-12-27T07:06:14.869Z,97.24
2022-12-27T07:08:41.763Z,97.51
2022-12-27T07:11:12.183Z,97.38
2022-12-27T07:13:42.887Z,97.26
2022-12-27T07:16:12.708Z,97.35
2022-12-27T07:18:40.449Z,96.85
2022-12-27T07:21:11.966Z,97.50
2022-12-27T07:23:39.112Z,97.63
2022-12-27T07:26:09.437Z,97.65
2022-12-27T07:28:37.840Z,97.18
2022-12-27T07:31:10.547Z,97.26
2022-12-27T07:33:38.956Z,97.31
2022-12-27T07:36:12.292Z,97.10
2022-12-27T07:38:40.286Z,97.52
2022-12-27T07:41:07.486Z,96.99
2022-12-27T07:43:35.584Z,97.01
2022-12-27T07:46:08.509Z,97.09
2022-12-27T07:48:35.942Z,97.04
2022-12-27T07:51:03.980Z,96.96
2022-12-27T07:53:31.633Z,97.04
2022-12-27T07:55:58.729Z,97.11
2022-12-27T07:58:25.866Z,97.03
2022-12-27T08:00:53.291Z,97.30
2022-12-27T08:03:20.365Z,97.32
2022-12-27T08:05:54.565Z,96.80
2022-12-27T08:08:26.980Z,96.88
2022-12-27T08:10:53.882Z,97.05
2022-12-27T08:13:20.789Z,97.13
2022-12-27T08:15:47.916Z,97.14
2022-12-27T08:18:14.828Z,97.12
2022-12-27T08:20:41.730Z,97.24
2022-12-27T08:23:08.627Z,97.41
2022-12-27T08:25:35.589Z,97.57
2022-12-27T08:28:08.281Z,97.11
2022-12-27T08:30:35.235Z,97.56
2022-12-27T08:33:03.071Z,97.36
2022-12-27T08:38:18.329Z,97.42
2022-12-27T08:40:46.201Z,97.66
2022-12-27T08:43:14.152Z,97.40
2022-12-27T08:45:41.163Z,97.58
2022-12-27T08:48:08.159Z,97.28
2022-12-27T08:50:35.369Z,97.63
2022-12-27T08:53:04.709Z,97.36
2022-12-27T08:55:32.725Z,97.58
2022-12-27T08:58:12.097Z,97.18
2022-12-27T09:00:42.558Z,97.25
2022-12-27T09:03:10.535Z,97.53
2022-12-27T09:05:41.719Z,97.27
2022-12-27T09:08:09.392Z,97.21
2022-12-27T09:10:37.041Z,97.56
2022-12-27T09:13:04.176Z,97.54
2022-12-27T09:15:31.126Z,97.47
2022-12-27T09:17:58.105Z,97.53
2022-12-27T09:20:25.112Z,97.91
2022-12-27T09:22:52.076Z,97.88
2022-12-27T09:25:19.160Z,98.07
2022-12-27T09:27:46.151Z,97.93
2022-12-27T09:30:13.446Z,98.30
2022-12-27T09:32:40.386Z,98.42
2022-12-27T09:35:07.770Z,98.28
2022-12-27T09:37:34.686Z,98.46
2022-12-27T09:40:01.634Z,98.36
2022-12-27T09:43:12.863Z,98.14
2022-12-27T09:45:53.916Z,97.79
2022-12-27T09:48:39.226Z,98.01
2022-12-27T09:51:25.123Z,97.77
2022-12-27T09:54:16.955Z,98.07
2022-12-27T09:59:39.217Z,98.11
2022-12-27T10:02:28.393Z,98.23
2022-12-27T10:05:19.681Z,98.33
2022-12-27T10:08:25.678Z,98.03
2022-12-27T10:11:37.042Z,97.78
2022-12-27T10:14:12.626Z,97.76
2022-12-27T10:16:47.355Z,98.52
2022-12-27T10:19:48.699Z,98.27
2022-12-27T10:22:48.069Z,98.39
2022-12-27T10:25:18.604Z,98.20
2022-12-27T10:27:47.931Z,97.91
2022-12-27T10:30:21.865Z,97.99
2022-12-27T10:32:49.713Z,98.62
2022-12-27T10:35:20.150Z,98.78
2022-12-27T10:37:49.321Z,98.96
2022-12-27T10:40:41.576Z,98.44
2022-12-27T10:43:26.839Z,98.36
2022-12-27T10:45:53.922Z,97.79
2022-12-27T10:48:28.892Z,97.69
2022-12-27T10:51:09.566Z,98.23
2022-12-27T10:53:57.369Z,98.36
2022-12-27T10:56:38.748Z,98.54
2022-12-27T10:59:10.869Z,98.21
2022-12-27T11:01:37.999Z,98.26
2022-12-27T11:04:24.495Z,98.04
2022-12-27T11:06:59.836Z,98.17
2022-12-27T11:09:28.351Z,98.17
2022-12-27T11:12:24.387Z,97.90
2022-12-27T11:15:10.938Z,98.33
2022-12-27T11:17:55.071Z,98.51
2022-12-27T11:20:38.415Z,98.95
2022-12-27T11:23:08.204Z,98.43
2022-12-27T11:25:46.121Z,97.72
2022-12-27T11:28:27.909Z,97.47
2022-12-27T11:31:02.426Z,96.78
2022-12-27T11:33:52.484Z,97.49
2022-12-27T11:36:42.616Z,98.23
2022-12-27T11:39:51.752Z,97.88
2022-12-27T11:42:40.758Z,97.20
2022-12-27T11:45:19.183Z,97.43
2022-12-27T11:48:04.920Z,96.57
2022-12-27T11:51:02.800Z,97.32
2022-12-27T11:53:56.436Z,98.36
2022-12-27T11:56:36.998Z,97.20
2022-12-27T11:59:44.603Z,97.53
2022-12-27T12:02:42.108Z,98.36
2022-12-27T12:05:51.627Z,96.79
2022-12-27T12:08:49.338Z,97.38
2022-12-27T12:11:28.575Z,95.39
2022-12-27T12:14:26.101Z,96.92
2022-12-27T12:17:36.189Z,95.60
2022-12-27T12:20:13.711Z,95.42
2022-12-27T12:23:17.961Z,95.80
2022-12-27T12:26:19.660Z,96.14
2022-12-27T12:29:20.128Z,96.66
2022-12-27T12:32:52.834Z,95.26
2022-12-27T12:35:43.185Z,96.15
2022-12-27T12:38:38.379Z,96.22
2022-12-27T12:41:50.036Z,96.62
2022-12-27T12:45:09.922Z,96.69
2022-12-27T12:48:08.869Z,96.57
2022-12-27T12:50:57.734Z,96.52
2022-12-27T12:53:57.599Z,96.89
2022-12-27T12:56:56.509Z,96.43
2022-12-27T12:59:49.415Z,97.04
2022-12-27T13:02:48.284Z,96.83
2022-12-27T13:05:45.679Z,96.70
2022-12-27T13:08:33.175Z,96.56
2022-12-27T13:11:04.949Z,96.83
2022-12-27T13:14:09.459Z,97.34
2022-12-27T13:16:54.992Z,97.41
2022-12-27T13:19:55.730Z,96.82
2022-12-27T13:22:56.360Z,96.52
2022-12-27T13:25:54.968Z,97.61
2022-12-27T13:29:03.394Z,97.32
2022-12-27T13:31:51.302Z,97.48
2022-12-27T13:34:33.314Z,97.30
2022-12-27T13:37:39.502Z,97.70
2022-12-27T13:40:34.850Z,97.81
2022-12-27T13:43:37.041Z,98.09
2022-12-27T13:46:44.958Z,97.99
2022-12-27T13:49:45.996Z,98.30
2022-12-27T13:53:00.104Z,97.44
2022-12-27T13:55:55.469Z,98.10
2022-12-27T13:58:28.013Z,97.46
2022-12-27T14:01:25.571Z,97.88
2022-12-27T14:04:42.302Z,97.12
2022-12-27T14:07:41.704Z,97.21
2022-12-27T14:10:20.565Z,97.05
2022-12-27T14:12:58.774Z,97.25
2022-12-27T14:16:20.262Z,96.78
2022-12-27T14:19:00.639Z,97.43
2022-12-27T14:22:02.871Z,97.37
2022-12-27T14:25:35.962Z,97.23
2022-12-27T14:28:41.572Z,97.09
2022-12-27T14:31:49.626Z,97.51
2022-12-27T14:35:00.305Z,97.66
2022-12-27T14:37:45.287Z,96.75
2022-12-27T14:41:12.625Z,96.14
2022-12-27T14:44:37.731Z,96.96
2022-12-27T14:47:48.763Z,96.51
2022-12-27T14:50:42.750Z,96.34
2022-12-27T14:53:47.231Z,96.94
2022-12-27T14:56:47.476Z,96.57
2022-12-27T14:59:48.604Z,96.63
2022-12-27T15:02:53.809Z,96.71
2022-12-27T15:05:55.671Z,96.95
2022-12-27T15:09:03.850Z,96.53
2022-12-27T15:11:54.460Z,96.66
2022-12-27T15:15:10.394Z,96.58
2022-12-27T15:18:28.858Z,96.99
2022-12-27T15:21:25.312Z,96.93
2022-12-27T15:24:11.289Z,96.87
2022-12-27T15:27:02.774Z,96.53
2022-12-27T15:29:58.139Z,96.22
2022-12-27T15:33:09.549Z,96.94
2022-12-27T15:35:52.450Z,96.74
2022-12-27T15:38:39.191Z,96.60
2022-12-27T15:41:09.037Z,96.60
2022-12-27T15:44:19.278Z,96.55
2022-12-27T15:47:29.489Z,96.27
2022-12-27T15:50:36.723Z,96.40
2022-12-27T15:53:29.724Z,96.25
2022-12-27T15:56:24.310Z,96.62
2022-12-27T15:59:36.373Z,96.50
2022-12-27T16:02:43.378Z,96.50
2022-12-27T16:05:19.493Z,96.65
2022-12-27T16:07:58.867Z,96.43
2022-12-27T16:10:42.188Z,96.31
2022-12-27T16:13:41.343Z,95.73
2022-12-27T16:16:38.555Z,96.03
2022-12-27T16:19:19.807Z,95.61
2022-12-27T16:21:46.989Z,95.43
2022-12-27T16:24:22.055Z,95.64
2022-12-27T16:27:04.678Z,95.26
2022-12-27T16:29:36.369Z,94.98
2022-12-27T16:32:21.826Z,94.96
2022-12-27T16:34:55.555Z,95.32
2022-12-27T16:37:43.000Z,95.03
2022-12-27T16:40:44.687Z,95.03
2022-12-27T16:43:11.465Z,95.21
2022-12-27T16:45:54.390Z,95.06
2022-12-27T16:48:49.017Z,94.82
2022-12-27T16:52:28.173Z,94.86
2022-12-27T16:55:30.687Z,94.75
2022-12-27T16:58:34.998Z,94.25
2022-12-27T17:01:27.061Z,94.67
2022-12-27T17:03:56.235Z,94.37
2022-12-27T17:06:38.290Z,94.26
2022-12-27T17:09:08.250Z,94.65
2022-12-27T17:11:39.123Z,94.25
2022-12-27T17:14:25.794Z,94.54
2022-12-27T17:17:02.651Z,94.50
2022-12-27T17:20:00.639Z,94.13
2022-12-27T17:22:34.684Z,94.09
2022-12-27T17:25:03.592Z,94.38
2022-12-27T17:28:31.552Z,93.86
2022-12-27T17:31:31.284Z,93.47
2022-12-27T17:34:30.589Z,93.72
2022-12-27T17:37:13.001Z,93.78
2022-12-27T17:40:09.455Z,93.41
2022-12-27T17:43:42.455Z,93.23
2022-12-27T17:46:42.494Z,93.22
2022-12-27T17:49:11.426Z,93.55
2022-12-27T17:52:01.918Z,93.23
2022-12-27T17:54:48.259Z,93.51
2022-12-27T17:57:54.211Z,93.20
2022-12-27T18:00:29.565Z,92.31
2022-12-27T18:02:59.499Z,92.77
2022-12-27T18:05:32.094Z,92.31
2022-12-27T18:08:16.765Z,92.14
2022-12-27T18:10:44.132Z,92.51
2022-12-27T18:13:18.446Z,92.43
2022-12-27T18:15:48.831Z,92.32
2022-12-27T18:18:34.369Z,92.43
2022-12-27T18:21:04.264Z,92.21
2022-12-27T18:23:42.449Z,91.99
2022-12-27T18:26:15.118Z,92.02
2022-12-27T18:28:43.001Z,92.31
2022-12-27T18:32:05.319Z,92.07
2022-12-27T18:34:49.062Z,92.36
2022-12-27T18:37:27.014Z,92.41
2022-12-27T18:40:27.398Z,92.01
2022-12-27T18:43:16.569Z,92.08
2022-12-27T18:45:48.218Z,91.50
2022-12-27T18:48:18.402Z,91.81
2022-12-27T18:50:52.352Z,91.33
2022-12-27T18:53:35.791Z,91.75
2022-12-27T18:56:13.941Z,91.04
2022-12-27T18:58:58.132Z,91.22
2022-12-27T19:01:42.217Z,90.91
2022-12-27T19:04:16.389Z,91.27
2022-12-27T19:07:03.890Z,90.78
2022-12-27T19:09:50.925Z,90.76
2022-12-27T19:12:39.245Z,90.93
2022-12-27T19:15:17.911Z,91.08
2022-12-27T19:18:02.236Z,90.98
2022-12-27T19:20:33.954Z,91.08
2022-12-27T19:23:22.755Z,91.34
2022-12-27T19:26:01.436Z,91.20
2022-12-27T19:28:30.226Z,91.28
2022-12-27T19:31:21.829Z,90.97
2022-12-27T19:33:57.018Z,90.48
2022-12-27T19:36:33.582Z,90.75
2022-12-27T19:39:01.096Z,91.20
2022-12-27T19:41:28.929Z,91.23
2022-12-27T19:43:56.402Z,91.12
2022-12-27T19:46:30.447Z,91.08
2022-12-27T19:51:45.706Z,91.14
2022-12-27T19:54:18.049Z,90.59
2022-12-27T19:56:45.245Z,90.73
2022-12-27T19:59:22.786Z,90.49
2022-12-27T20:01:50.558Z,90.87
2022-12-27T20:04:18.464Z,90.52
2022-12-27T20:06:48.696Z,90.55
2022-12-27T20:09:19.576Z,90.96
2022-12-27T20:11:49.221Z,91.23
2022-12-27T20:14:17.865Z,90.51
2022-12-27T20:16:46.847Z,90.93
2022-12-27T20:19:16.331Z,90.72
2022-12-27T20:21:43.617Z,90.52
2022-12-27T20:24:12.257Z,90.23
2022-12-27T20:26:40.292Z,90.22
2022-12-27T20:29:07.414Z,90.35
2022-12-27T20:31:37.656Z,90.57
2022-12-27T20:34:11.446Z,90.57
2022-12-27T20:36:38.478Z,90.60
2022-12-27T20:39:06.943Z,90.92
2022-12-27T20:41:34.381Z,90.97
2022-12-27T20:44:01.357Z,90.94
2022-12-27T20:46:28.972Z,90.83
2022-12-27T20:48:57.157Z,90.96
2022-12-27T20:51:28.520Z,90.94
2022-12-27T20:53:58.730Z,90.59
2022-12-27T20:56:25.712Z,91.06
2022-12-27T20:58:54.738Z,90.94
2022-12-27T21:01:26.476Z,90.75
2022-12-27T21:03:56.984Z,91.23
2022-12-27T21:06:28.751Z,90.94
2022-12-27T21:08:58.266Z,91.18
2022-12-27T21:11:33.114Z,90.83
2022-12-27T21:14:05.412Z,91.04
2022-12-27T21:16:35.004Z,91.13
2022-12-27T21:19:04.507Z,90.84
2022-12-27T21:21:34.813Z,90.96
2022-12-27T21:24:02.179Z,91.34
2022-12-27T21:26:33.308Z,90.90
2022-12-27T21:29:00.454Z,91.49
2022-12-27T21:31:28.683Z,91.22
2022-12-27T21:33:55.771Z,91.23
2022-12-27T21:36:26.342Z,91.12
2022-12-27T21:38:54.609Z,91.58
2022-12-27T21:41:33.600Z,91.14
2022-12-27T21:44:01.155Z,91.10
2022-12-27T21:46:32.276Z,91.60
2022-12-27T21:49:07.055Z,91.64
2022-12-27T21:51:36.204Z,91.07
2022-12-27T21:54:04.042Z,91.41
2022-12-27T21:56:31.299Z,91.42
2022-12-27T21:58:59.724Z,91.25
2022-12-27T22:01:50.625Z,91.16
2022-12-27T22:04:21.306Z,90.94
2022-12-27T22:07:05.136Z,91.21
2022-12-27T22:09:32.233Z,91.16
2022-12-27T22:11:59.160Z,91.42
2022-12-27T22:14:27.616Z,91.71
2022-12-27T22:16:56.442Z,91.54
2022-12-27T22:19:23.330Z,91.23
2022-12-27T22:21:50.248Z,91.56
2022-12-27T22:24:19.434Z,91.56
2022-12-27T22:26:48.469Z,91.52
2022-12-27T22:29:15.533Z,91.56
2022-12-27T22:31:42.820Z,91.00
2022-12-27T22:34:09.818Z,91.72
2022-12-27T22:36:36.764Z,91.31
2022-12-27T22:39:04.175Z,91.51
2022-12-27T22:41:35.977Z,91.62
2022-12-27T22:44:07.315Z,91.66
2022-12-27T22:49:21.804Z,91.40
2022-12-27T22:51:48.732Z,91.25
2022-12-27T22:54:15.653Z,91.62
2022-12-27T22:56:43.630Z,91.61
2022-12-27T22:59:18.733Z,91.58
2022-12-27T23:01:46.148Z,91.32
2022-12-27T23:04:14.490Z,91.37
2022-12-27T23:06:42.392Z,91.76
2022-12-27T23:09:10.150Z,91.55
2022-12-27T23:11:40.893Z,91.84
2022-12-27T23:14:14.915Z,91.80
2022-12-27T23:16:48.295Z,91.70
2022-12-27T23:19:19.108Z,91.62
2022-12-27T23:21:47.480Z,91.74
2022-12-27T23:24:15.517Z,91.84
2022-12-27T23:26:42.516Z,91.72
2022-12-27T23:29:12.796Z,91.57
2022-12-27T23:31:54.957Z,91.73
2022-12-27T23:34:28.065Z,91.78
2022-12-27T23:36:57.690Z,91.87
2022-12-27T23:39:24.962Z,91.74
2022-12-27T23:41:51.895Z,91.93
2022-12-27T23:44:32.964Z,91.91
2022-12-27T23:47:04.487Z,91.98
2022-12-27T23:49:31.637Z,91.69
2022-12-27T23:51:58.559Z,91.83
2022-12-27T23:54:25.491Z,91.69
2022-12-27T23:56:52.427Z,91.94
2022-12-27T23:59:19.438Z,92.06
